sensor_id;sensor_type;location;lat;lon;timestamp;temperature;humidity
12684;DHT22;6406;59.312;18.058;2022-09-09T00:01:46;11.50;99.90
12684;DHT22;6406;59.312;18.058;2022-09-09T00:04:23;11.60;99.90
12684;DHT22;6406;59.312;18.058;2022-09-09T00:07:00;11.60;99.90
12684;DHT22;6406;59.312;18.058;2022-09-09T00:09:34;11.70;99.90
12684;DHT22;6406;59.312;18.058;2022-09-09T00:12:10;11.70;99.90
12684;DHT22;6406;59.312;18.058;2022-09-09T00:14:42;11.70;99.90
12684;DHT22;6406;59.312;18.058;2022-09-09T00:17:17;11.70;99.90
12684;DHT22;6406;59.312;18.058;2022-09-09T00:19:49;11.80;99.90
12684;DHT22;6406;59.312;18.058;2022-09-09T00:22:19;11.80;99.00
12684;DHT22;6406;59.312;18.058;2022-09-09T00:24:51;11.90;97.30
12684;DHT22;6406;59.312;18.058;2022-09-09T00:27:25;9.60;94.70
12684;DHT22;6406;59.312;18.058;2022-09-09T00:29:56;11.90;99.80
12684;DHT22;6406;59.312;18.058;2022-09-09T00:32:28;11.90;98.40
12684;DHT22;6406;59.312;18.058;2022-09-09T00:35:00;12.00;82.30
12684;DHT22;6406;59.312;18.058;2022-09-09T00:37:28;12.00;94.60
12684;DHT22;6406;59.312;18.058;2022-09-09T00:40:01;12.00;79.30
12684;DHT22;6406;59.312;18.058;2022-09-09T00:42:36;12.10;90.20
12684;DHT22;6406;59.312;18.058;2022-09-09T00:45:17;12.20;74.30
12684;DHT22;6406;59.312;18.058;2022-09-09T00:47:46;12.20;91.40
12684;DHT22;6406;59.312;18.058;2022-09-09T00:50:30;12.20;77.30
12684;DHT22;6406;59.312;18.058;2022-09-09T00:53:10;12.30;69.60
12684;DHT22;6406;59.312;18.058;2022-09-09T00:55:46;12.30;91.90
12684;DHT22;6406;59.312;18.058;2022-09-09T00:58:15;12.30;96.30
12684;DHT22;6406;59.312;18.058;2022-09-09T01:00:44;12.30;83.70
12684;DHT22;6406;59.312;18.058;2022-09-09T01:03:22;12.30;91.90
12684;DHT22;6406;59.312;18.058;2022-09-09T01:06:00;12.30;95.30
12684;DHT22;6406;59.312;18.058;2022-09-09T01:08:43;12.30;96.10
12684;DHT22;6406;59.312;18.058;2022-09-09T01:11:21;12.30;99.20
12684;DHT22;6406;59.312;18.058;2022-09-09T01:13:53;12.30;99.90
12684;DHT22;6406;59.312;18.058;2022-09-09T01:16:25;12.30;99.90
12684;DHT22;6406;59.312;18.058;2022-09-09T01:18:54;12.30;99.90
12684;DHT22;6406;59.312;18.058;2022-09-09T01:21:39;12.30;99.90
12684;DHT22;6406;59.312;18.058;2022-09-09T01:24:19;12.30;99.90
12684;DHT22;6406;59.312;18.058;2022-09-09T01:26:50;12.30;99.90
12684;DHT22;6406;59.312;18.058;2022-09-09T01:29:19;12.30;99.90
12684;DHT22;6406;59.312;18.058;2022-09-09T01:31:54;12.30;99.90
12684;DHT22;6406;59.312;18.058;2022-09-09T01:34:23;12.40;99.90
12684;DHT22;6406;59.312;18.058;2022-09-09T01:36:56;12.30;99.90
12684;DHT22;6406;59.312;18.058;2022-09-09T01:39:24;12.30;99.90
12684;DHT22;6406;59.312;18.058;2022-09-09T01:41:53;12.30;99.90
12684;DHT22;6406;59.312;18.058;2022-09-09T01:44:21;12.30;99.90
12684;DHT22;6406;59.312;18.058;2022-09-09T01:46:49;12.30;99.90
12684;DHT22;6406;59.312;18.058;2022-09-09T01:49:16;12.30;99.90
12684;DHT22;6406;59.312;18.058;2022-09-09T01:51:44;12.30;99.90
12684;DHT22;6406;59.312;18.058;2022-09-09T01:54:13;12.30;99.90
12684;DHT22;6406;59.312;18.058;2022-09-09T01:56:50;12.30;99.90
12684;DHT22;6406;59.312;18.058;2022-09-09T01:59:45;12.30;99.90
12684;DHT22;6406;59.312;18.058;2022-09-09T02:02:18;12.30;99.90
12684;DHT22;6406;59.312;18.058;2022-09-09T02:04:47;12.30;99.90
12684;DHT22;6406;59.312;18.058;2022-09-09T02:07:34;12.30;99.90
12684;DHT22;6406;59.312;18.058;2022-09-09T02:10:09;12.30;99.90
12684;DHT22;6406;59.312;18.058;2022-09-09T02:12:41;12.40;99.90
12684;DHT22;6406;59.312;18.058;2022-09-09T02:15:16;12.40;99.90
12684;DHT22;6406;59.312;18.058;2022-09-09T02:17:46;12.40;99.90
12684;DHT22;6406;59.312;18.058;2022-09-09T02:20:16;12.30;99.90
12684;DHT22;6406;59.312;18.058;2022-09-09T02:22:46;12.40;99.90
12684;DHT22;6406;59.312;18.058;2022-09-09T02:25:18;12.40;99.90
12684;DHT22;6406;59.312;18.058;2022-09-09T02:27:47;12.40;99.90
12684;DHT22;6406;59.312;18.058;2022-09-09T02:30:19;12.40;99.90
12684;DHT22;6406;59.312;18.058;2022-09-09T02:32:48;12.40;99.90
12684;DHT22;6406;59.312;18.058;2022-09-09T02:35:19;12.40;99.90
12684;DHT22;6406;59.312;18.058;2022-09-09T02:37:49;12.40;99.90
12684;DHT22;6406;59.312;18.058;2022-09-09T02:40:17;12.40;99.90
12684;DHT22;6406;59.312;18.058;2022-09-09T02:42:46;12.40;99.90
12684;DHT22;6406;59.312;18.058;2022-09-09T02:45:16;12.50;99.90
12684;DHT22;6406;59.312;18.058;2022-09-09T02:47:51;12.50;99.90
12684;DHT22;6406;59.312;18.058;2022-09-09T02:50:23;12.50;99.90
12684;DHT22;6406;59.312;18.058;2022-09-09T02:53:01;12.50;99.90
12684;DHT22;6406;59.312;18.058;2022-09-09T02:55:39;12.50;99.90
12684;DHT22;6406;59.312;18.058;2022-09-09T02:58:09;12.60;99.90
12684;DHT22;6406;59.312;18.058;2022-09-09T03:00:43;12.60;99.90
12684;DHT22;6406;59.312;18.058;2022-09-09T03:03:12;12.60;99.90
12684;DHT22;6406;59.312;18.058;2022-09-09T03:05:39;12.70;99.90
12684;DHT22;6406;59.312;18.058;2022-09-09T03:08:06;12.70;99.90
12684;DHT22;6406;59.312;18.058;2022-09-09T03:10:33;12.70;99.90
12684;DHT22;6406;59.312;18.058;2022-09-09T03:13:02;12.70;99.90
12684;DHT22;6406;59.312;18.058;2022-09-09T03:15:31;12.70;99.90
12684;DHT22;6406;59.312;18.058;2022-09-09T03:17:58;12.80;99.90
12684;DHT22;6406;59.312;18.058;2022-09-09T03:20:28;12.80;99.90
12684;DHT22;6406;59.312;18.058;2022-09-09T03:22:56;12.80;99.90
12684;DHT22;6406;59.312;18.058;2022-09-09T03:25:24;12.70;99.90
12684;DHT22;6406;59.312;18.058;2022-09-09T03:27:51;12.80;99.90
12684;DHT22;6406;59.312;18.058;2022-09-09T03:30:20;12.80;99.90
12684;DHT22;6406;59.312;18.058;2022-09-09T03:32:47;12.80;99.90
12684;DHT22;6406;59.312;18.058;2022-09-09T03:35:14;12.80;99.90
12684;DHT22;6406;59.312;18.058;2022-09-09T03:37:44;12.80;99.90
12684;DHT22;6406;59.312;18.058;2022-09-09T03:40:11;12.80;99.90
12684;DHT22;6406;59.312;18.058;2022-09-09T03:42:38;12.80;99.90
12684;DHT22;6406;59.312;18.058;2022-09-09T03:45:07;12.80;99.90
12684;DHT22;6406;59.312;18.058;2022-09-09T03:47:37;12.80;99.90
12684;DHT22;6406;59.312;18.058;2022-09-09T03:50:05;12.80;99.90
12684;DHT22;6406;59.312;18.058;2022-09-09T03:52:35;12.80;99.90
12684;DHT22;6406;59.312;18.058;2022-09-09T03:55:04;12.80;99.90
12684;DHT22;6406;59.312;18.058;2022-09-09T03:57:32;12.80;99.90
12684;DHT22;6406;59.312;18.058;2022-09-09T04:00:01;12.80;99.90
12684;DHT22;6406;59.312;18.058;2022-09-09T04:02:28;12.90;99.90
12684;DHT22;6406;59.312;18.058;2022-09-09T04:04:55;12.90;99.90
12684;DHT22;6406;59.312;18.058;2022-09-09T04:07:22;12.90;99.90
12684;DHT22;6406;59.312;18.058;2022-09-09T04:09:49;12.90;99.90
12684;DHT22;6406;59.312;18.058;2022-09-09T04:12:18;13.00;99.90
12684;DHT22;6406;59.312;18.058;2022-09-09T04:14:45;13.00;99.90
12684;DHT22;6406;59.312;18.058;2022-09-09T04:17:11;13.00;99.90
12684;DHT22;6406;59.312;18.058;2022-09-09T04:19:38;13.00;99.90
12684;DHT22;6406;59.312;18.058;2022-09-09T04:22:05;13.00;99.90
12684;DHT22;6406;59.312;18.058;2022-09-09T04:24:32;13.00;99.90
12684;DHT22;6406;59.312;18.058;2022-09-09T04:27:00;13.10;99.90
12684;DHT22;6406;59.312;18.058;2022-09-09T04:29:29;13.20;99.90
12684;DHT22;6406;59.312;18.058;2022-09-09T04:31:56;13.20;99.90
12684;DHT22;6406;59.312;18.058;2022-09-09T04:34:23;13.20;99.90
12684;DHT22;6406;59.312;18.058;2022-09-09T04:36:51;13.20;99.90
12684;DHT22;6406;59.312;18.058;2022-09-09T04:39:18;13.20;99.90
12684;DHT22;6406;59.312;18.058;2022-09-09T04:41:46;13.20;99.90
12684;DHT22;6406;59.312;18.058;2022-09-09T04:44:13;13.20;99.90
12684;DHT22;6406;59.312;18.058;2022-09-09T04:46:41;13.30;99.90
12684;DHT22;6406;59.312;18.058;2022-09-09T04:49:08;13.30;99.90
12684;DHT22;6406;59.312;18.058;2022-09-09T04:51:35;13.30;99.90
12684;DHT22;6406;59.312;18.058;2022-09-09T04:54:03;13.00;99.90
12684;DHT22;6406;59.312;18.058;2022-09-09T04:56:30;13.40;99.90
12684;DHT22;6406;59.312;18.058;2022-09-09T04:58:58;13.40;99.90
12684;DHT22;6406;59.312;18.058;2022-09-09T05:01:25;13.40;99.90
12684;DHT22;6406;59.312;18.058;2022-09-09T05:03:54;13.40;99.90
12684;DHT22;6406;59.312;18.058;2022-09-09T05:06:22;13.40;99.90
12684;DHT22;6406;59.312;18.058;2022-09-09T05:08:49;13.40;99.90
12684;DHT22;6406;59.312;18.058;2022-09-09T05:11:18;13.50;99.90
12684;DHT22;6406;59.312;18.058;2022-09-09T05:13:46;13.50;99.90
12684;DHT22;6406;59.312;18.058;2022-09-09T05:16:13;13.50;99.90
12684;DHT22;6406;59.312;18.058;2022-09-09T05:18:41;13.60;99.90
12684;DHT22;6406;59.312;18.058;2022-09-09T05:21:11;13.60;99.90
12684;DHT22;6406;59.312;18.058;2022-09-09T05:23:39;13.60;99.90
12684;DHT22;6406;59.312;18.058;2022-09-09T05:26:09;13.70;99.90
12684;DHT22;6406;59.312;18.058;2022-09-09T05:28:38;13.10;99.90
12684;DHT22;6406;59.312;18.058;2022-09-09T05:31:07;13.30;99.90
12684;DHT22;6406;59.312;18.058;2022-09-09T05:33:35;13.90;99.90
12684;DHT22;6406;59.312;18.058;2022-09-09T05:36:05;14.00;99.90
12684;DHT22;6406;59.312;18.058;2022-09-09T05:38:37;14.10;99.90
12684;DHT22;6406;59.312;18.058;2022-09-09T05:41:05;14.10;99.90
12684;DHT22;6406;59.312;18.058;2022-09-09T05:43:33;14.10;99.90
12684;DHT22;6406;59.312;18.058;2022-09-09T05:46:02;14.20;99.90
12684;DHT22;6406;59.312;18.058;2022-09-09T05:48:34;14.20;99.90
12684;DHT22;6406;59.312;18.058;2022-09-09T05:51:05;14.20;99.90
12684;DHT22;6406;59.312;18.058;2022-09-09T05:53:34;14.40;99.90
12684;DHT22;6406;59.312;18.058;2022-09-09T05:56:05;13.60;99.90
12684;DHT22;6406;59.312;18.058;2022-09-09T05:58:33;14.90;99.90
12684;DHT22;6406;59.312;18.058;2022-09-09T06:03:41;14.80;99.90
12684;DHT22;6406;59.312;18.058;2022-09-09T06:06:14;14.80;99.90
12684;DHT22;6406;59.312;18.058;2022-09-09T06:08:43;15.00;99.90
12684;DHT22;6406;59.312;18.058;2022-09-09T06:11:14;15.10;99.90
12684;DHT22;6406;59.312;18.058;2022-09-09T06:13:42;15.30;99.90
12684;DHT22;6406;59.312;18.058;2022-09-09T06:16:15;14.80;99.90
12684;DHT22;6406;59.312;18.058;2022-09-09T06:18:43;14.80;99.90
12684;DHT22;6406;59.312;18.058;2022-09-09T06:21:15;14.00;99.90
12684;DHT22;6406;59.312;18.058;2022-09-09T06:23:43;14.60;99.90
12684;DHT22;6406;59.312;18.058;2022-09-09T06:26:14;14.40;99.90
12684;DHT22;6406;59.312;18.058;2022-09-09T06:28:55;14.50;99.90
12684;DHT22;6406;59.312;18.058;2022-09-09T06:31:35;14.50;99.90
12684;DHT22;6406;59.312;18.058;2022-09-09T06:34:05;14.60;99.90
12684;DHT22;6406;59.312;18.058;2022-09-09T06:36:35;14.70;1.00
12684;DHT22;6406;59.312;18.058;2022-09-09T06:39:04;14.70;99.90
12684;DHT22;6406;59.312;18.058;2022-09-09T06:41:33;14.60;99.90
12684;DHT22;6406;59.312;18.058;2022-09-09T06:44:01;14.40;1.00
12684;DHT22;6406;59.312;18.058;2022-09-09T06:46:30;14.30;1.00
12684;DHT22;6406;59.312;18.058;2022-09-09T06:48:59;14.30;1.00
12684;DHT22;6406;59.312;18.058;2022-09-09T06:51:29;14.30;1.00
12684;DHT22;6406;59.312;18.058;2022-09-09T06:53:58;15.00;1.00
12684;DHT22;6406;59.312;18.058;2022-09-09T06:56:27;14.40;1.00
12684;DHT22;6406;59.312;18.058;2022-09-09T06:58:58;14.60;1.00
12684;DHT22;6406;59.312;18.058;2022-09-09T07:01:28;14.40;1.00
12684;DHT22;6406;59.312;18.058;2022-09-09T07:03:56;13.60;1.00
12684;DHT22;6406;59.312;18.058;2022-09-09T07:06:27;14.60;1.00
12684;DHT22;6406;59.312;18.058;2022-09-09T07:08:56;13.30;1.00
12684;DHT22;6406;59.312;18.058;2022-09-09T07:11:27;14.60;1.00
12684;DHT22;6406;59.312;18.058;2022-09-09T07:13:57;14.70;1.00
12684;DHT22;6406;59.312;18.058;2022-09-09T07:16:26;14.90;1.00
12684;DHT22;6406;59.312;18.058;2022-09-09T07:18:54;15.00;1.00
12684;DHT22;6406;59.312;18.058;2022-09-09T07:21:24;15.00;1.00
12684;DHT22;6406;59.312;18.058;2022-09-09T07:23:52;15.00;1.00
12684;DHT22;6406;59.312;18.058;2022-09-09T07:26:20;14.90;1.00
12684;DHT22;6406;59.312;18.058;2022-09-09T07:28:48;14.50;1.00
12684;DHT22;6406;59.312;18.058;2022-09-09T07:31:21;14.30;1.00
12684;DHT22;6406;59.312;18.058;2022-09-09T07:33:49;14.60;1.00
12684;DHT22;6406;59.312;18.058;2022-09-09T07:36:18;14.90;1.00
12684;DHT22;6406;59.312;18.058;2022-09-09T07:38:49;15.30;1.00
12684;DHT22;6406;59.312;18.058;2022-09-09T07:41:19;15.50;1.00
12684;DHT22;6406;59.312;18.058;2022-09-09T07:43:48;14.80;1.00
12684;DHT22;6406;59.312;18.058;2022-09-09T07:46:18;17.00;1.00
12684;DHT22;6406;59.312;18.058;2022-09-09T07:48:47;15.00;1.00
12684;DHT22;6406;59.312;18.058;2022-09-09T07:51:19;14.60;1.00
12684;DHT22;6406;59.312;18.058;2022-09-09T07:53:51;14.40;1.00
12684;DHT22;6406;59.312;18.058;2022-09-09T07:56:23;16.30;1.00
12684;DHT22;6406;59.312;18.058;2022-09-09T07:58:52;15.00;1.00
12684;DHT22;6406;59.312;18.058;2022-09-09T08:01:26;15.20;1.00
12684;DHT22;6406;59.312;18.058;2022-09-09T08:04:03;13.60;1.00
12684;DHT22;6406;59.312;18.058;2022-09-09T08:06:46;15.00;1.00
12684;DHT22;6406;59.312;18.058;2022-09-09T08:09:23;15.00;1.00
12684;DHT22;6406;59.312;18.058;2022-09-09T08:11:52;15.00;1.00
12684;DHT22;6406;59.312;18.058;2022-09-09T08:14:20;15.20;1.00
12684;DHT22;6406;59.312;18.058;2022-09-09T08:16:52;14.90;1.00
12684;DHT22;6406;59.312;18.058;2022-09-09T08:19:19;15.40;1.00
12684;DHT22;6406;59.312;18.058;2022-09-09T08:21:58;15.00;1.00
12684;DHT22;6406;59.312;18.058;2022-09-09T08:24:35;15.20;1.00
12684;DHT22;6406;59.312;18.058;2022-09-09T08:27:17;13.70;1.00
12684;DHT22;6406;59.312;18.058;2022-09-09T08:29:44;15.80;1.00
12684;DHT22;6406;59.312;18.058;2022-09-09T08:32:41;15.70;1.00
12684;DHT22;6406;59.312;18.058;2022-09-09T08:35:09;15.70;1.00
12684;DHT22;6406;59.312;18.058;2022-09-09T08:37:36;15.20;1.00
12684;DHT22;6406;59.312;18.058;2022-09-09T08:40:04;13.00;1.00
12684;DHT22;6406;59.312;18.058;2022-09-09T08:42:38;15.50;1.00
12684;DHT22;6406;59.312;18.058;2022-09-09T08:45:22;15.60;1.00
12684;DHT22;6406;59.312;18.058;2022-09-09T08:48:08;14.10;1.00
12684;DHT22;6406;59.312;18.058;2022-09-09T08:50:39;15.30;1.00
12684;DHT22;6406;59.312;18.058;2022-09-09T08:53:11;15.50;1.00
12684;DHT22;6406;59.312;18.058;2022-09-09T08:55:45;15.60;1.00
12684;DHT22;6406;59.312;18.058;2022-09-09T08:58:15;15.50;1.00
12684;DHT22;6406;59.312;18.058;2022-09-09T09:03:41;15.80;1.00
12684;DHT22;6406;59.312;18.058;2022-09-09T09:06:26;15.90;1.00
12684;DHT22;6406;59.312;18.058;2022-09-09T09:09:04;15.50;1.00
12684;DHT22;6406;59.312;18.058;2022-09-09T09:11:36;15.50;1.00
12684;DHT22;6406;59.312;18.058;2022-09-09T09:14:09;15.60;1.00
12684;DHT22;6406;59.312;18.058;2022-09-09T09:16:41;15.50;1.00
12684;DHT22;6406;59.312;18.058;2022-09-09T09:19:13;15.70;1.00
12684;DHT22;6406;59.312;18.058;2022-09-09T09:21:43;15.10;1.00
12684;DHT22;6406;59.312;18.058;2022-09-09T09:24:18;14.80;1.00
12684;DHT22;6406;59.312;18.058;2022-09-09T09:26:45;14.90;1.00
12684;DHT22;6406;59.312;18.058;2022-09-09T09:29:15;15.00;1.00
12684;DHT22;6406;59.312;18.058;2022-09-09T09:31:45;15.20;1.00
12684;DHT22;6406;59.312;18.058;2022-09-09T09:34:15;15.10;1.00
12684;DHT22;6406;59.312;18.058;2022-09-09T09:36:45;15.10;1.00
12684;DHT22;6406;59.312;18.058;2022-09-09T09:39:25;14.90;1.00
12684;DHT22;6406;59.312;18.058;2022-09-09T09:41:53;13.80;1.00
12684;DHT22;6406;59.312;18.058;2022-09-09T09:44:24;15.00;1.00
12684;DHT22;6406;59.312;18.058;2022-09-09T09:47:04;14.30;1.00
12684;DHT22;6406;59.312;18.058;2022-09-09T09:49:34;15.40;1.00
12684;DHT22;6406;59.312;18.058;2022-09-09T09:52:04;15.70;1.00
12684;DHT22;6406;59.312;18.058;2022-09-09T09:54:33;15.80;1.00
12684;DHT22;6406;59.312;18.058;2022-09-09T09:57:09;15.90;1.00
12684;DHT22;6406;59.312;18.058;2022-09-09T09:59:40;15.70;1.00
12684;DHT22;6406;59.312;18.058;2022-09-09T10:02:17;15.50;1.00
12684;DHT22;6406;59.312;18.058;2022-09-09T10:04:46;15.40;1.00
12684;DHT22;6406;59.312;18.058;2022-09-09T10:07:18;15.30;1.00
12684;DHT22;6406;59.312;18.058;2022-09-09T10:09:50;15.30;1.00
12684;DHT22;6406;59.312;18.058;2022-09-09T10:12:37;15.00;1.00
12684;DHT22;6406;59.312;18.058;2022-09-09T10:15:21;15.20;1.00
12684;DHT22;6406;59.312;18.058;2022-09-09T10:17:59;15.30;1.00
12684;DHT22;6406;59.312;18.058;2022-09-09T10:20:39;15.60;1.00
12684;DHT22;6406;59.312;18.058;2022-09-09T10:23:21;16.10;1.00
12684;DHT22;6406;59.312;18.058;2022-09-09T10:26:12;16.30;1.00
12684;DHT22;6406;59.312;18.058;2022-09-09T10:28:55;16.80;1.00
12684;DHT22;6406;59.312;18.058;2022-09-09T10:31:33;16.70;1.00
12684;DHT22;6406;59.312;18.058;2022-09-09T10:34:12;15.50;1.00
12684;DHT22;6406;59.312;18.058;2022-09-09T10:36:47;16.40;1.00
12684;DHT22;6406;59.312;18.058;2022-09-09T10:39:27;16.50;1.00
12684;DHT22;6406;59.312;18.058;2022-09-09T10:42:05;16.90;1.00
12684;DHT22;6406;59.312;18.058;2022-09-09T10:44:48;16.00;1.00
12684;DHT22;6406;59.312;18.058;2022-09-09T10:47:49;15.50;1.00
12684;DHT22;6406;59.312;18.058;2022-09-09T10:50:40;16.30;1.00
12684;DHT22;6406;59.312;18.058;2022-09-09T10:53:17;16.40;1.00
12684;DHT22;6406;59.312;18.058;2022-09-09T10:55:52;16.60;1.00
12684;DHT22;6406;59.312;18.058;2022-09-09T10:58:23;15.40;1.00
12684;DHT22;6406;59.312;18.058;2022-09-09T11:00:55;15.80;1.00
12684;DHT22;6406;59.312;18.058;2022-09-09T11:03:26;16.20;1.00
12684;DHT22;6406;59.312;18.058;2022-09-09T11:05:57;15.80;1.00
12684;DHT22;6406;59.312;18.058;2022-09-09T11:08:29;16.00;1.00
12684;DHT22;6406;59.312;18.058;2022-09-09T11:11:02;15.80;1.00
12684;DHT22;6406;59.312;18.058;2022-09-09T11:13:34;16.00;1.00
12684;DHT22;6406;59.312;18.058;2022-09-09T11:16:16;16.00;1.00
12684;DHT22;6406;59.312;18.058;2022-09-09T11:18:46;15.40;1.00
12684;DHT22;6406;59.312;18.058;2022-09-09T11:21:19;15.50;1.00
12684;DHT22;6406;59.312;18.058;2022-09-09T11:23:54;15.90;1.00
12684;DHT22;6406;59.312;18.058;2022-09-09T11:26:30;16.20;1.00
12684;DHT22;6406;59.312;18.058;2022-09-09T11:29:11;16.90;1.00
12684;DHT22;6406;59.312;18.058;2022-09-09T11:31:45;17.50;1.00
12684;DHT22;6406;59.312;18.058;2022-09-09T11:34:26;17.60;1.00
12684;DHT22;6406;59.312;18.058;2022-09-09T11:37:04;17.80;1.00
12684;DHT22;6406;59.312;18.058;2022-09-09T11:39:53;18.70;1.00
12684;DHT22;6406;59.312;18.058;2022-09-09T11:42:24;19.20;1.00
12684;DHT22;6406;59.312;18.058;2022-09-09T11:44:51;18.90;1.00
12684;DHT22;6406;59.312;18.058;2022-09-09T11:47:23;18.60;1.00
12684;DHT22;6406;59.312;18.058;2022-09-09T11:49:55;17.90;1.00
12684;DHT22;6406;59.312;18.058;2022-09-09T11:52:24;17.10;1.00
12684;DHT22;6406;59.312;18.058;2022-09-09T11:54:55;18.20;1.00
12684;DHT22;6406;59.312;18.058;2022-09-09T11:57:26;19.30;1.00
12684;DHT22;6406;59.312;18.058;2022-09-09T11:59:57;19.70;1.00
12684;DHT22;6406;59.312;18.058;2022-09-09T12:02:27;18.40;1.00
12684;DHT22;6406;59.312;18.058;2022-09-09T12:04:59;17.80;1.00
12684;DHT22;6406;59.312;18.058;2022-09-09T12:07:35;18.30;1.00
12684;DHT22;6406;59.312;18.058;2022-09-09T12:10:20;17.50;1.00
12684;DHT22;6406;59.312;18.058;2022-09-09T12:12:50;16.90;1.00
12684;DHT22;6406;59.312;18.058;2022-09-09T12:15:27;16.60;1.00
12684;DHT22;6406;59.312;18.058;2022-09-09T12:17:56;16.70;1.00
12684;DHT22;6406;59.312;18.058;2022-09-09T12:20:31;16.80;1.00
12684;DHT22;6406;59.312;18.058;2022-09-09T12:23:18;16.70;1.00
12684;DHT22;6406;59.312;18.058;2022-09-09T12:25:58;16.90;1.00
12684;DHT22;6406;59.312;18.058;2022-09-09T12:28:39;17.10;1.00
12684;DHT22;6406;59.312;18.058;2022-09-09T12:31:11;16.90;1.00
12684;DHT22;6406;59.312;18.058;2022-09-09T12:33:44;16.70;1.00
12684;DHT22;6406;59.312;18.058;2022-09-09T12:36:15;16.10;1.00
12684;DHT22;6406;59.312;18.058;2022-09-09T12:38:45;17.00;1.00
12684;DHT22;6406;59.312;18.058;2022-09-09T12:41:21;16.40;1.00
12684;DHT22;6406;59.312;18.058;2022-09-09T12:43:49;16.80;1.00
12684;DHT22;6406;59.312;18.058;2022-09-09T12:46:24;17.00;1.00
12684;DHT22;6406;59.312;18.058;2022-09-09T12:48:57;16.80;1.00
12684;DHT22;6406;59.312;18.058;2022-09-09T12:51:28;17.00;1.00
12684;DHT22;6406;59.312;18.058;2022-09-09T12:53:56;17.50;1.00
12684;DHT22;6406;59.312;18.058;2022-09-09T12:56:28;15.90;1.00
12684;DHT22;6406;59.312;18.058;2022-09-09T12:58:57;17.10;1.00
12684;DHT22;6406;59.312;18.058;2022-09-09T13:01:26;16.70;1.00
12684;DHT22;6406;59.312;18.058;2022-09-09T13:03:55;16.50;1.00
12684;DHT22;6406;59.312;18.058;2022-09-09T13:06:24;16.40;1.00
12684;DHT22;6406;59.312;18.058;2022-09-09T13:08:52;16.60;1.00
12684;DHT22;6406;59.312;18.058;2022-09-09T13:11:23;16.90;1.00
12684;DHT22;6406;59.312;18.058;2022-09-09T13:13:54;16.30;1.00
12684;DHT22;6406;59.312;18.058;2022-09-09T13:16:26;16.00;1.00
12684;DHT22;6406;59.312;18.058;2022-09-09T13:18:56;15.90;1.00
12684;DHT22;6406;59.312;18.058;2022-09-09T13:21:33;15.80;1.00
12684;DHT22;6406;59.312;18.058;2022-09-09T13:24:01;15.60;1.00
12684;DHT22;6406;59.312;18.058;2022-09-09T13:26:30;15.40;1.00
12684;DHT22;6406;59.312;18.058;2022-09-09T13:29:15;15.60;1.00
12684;DHT22;6406;59.312;18.058;2022-09-09T13:31:45;16.60;1.00
12684;DHT22;6406;59.312;18.058;2022-09-09T13:34:22;15.60;1.00
12684;DHT22;6406;59.312;18.058;2022-09-09T13:36:54;15.50;1.00
12684;DHT22;6406;59.312;18.058;2022-09-09T13:39:24;15.60;1.00
12684;DHT22;6406;59.312;18.058;2022-09-09T13:41:51;16.00;1.00
12684;DHT22;6406;59.312;18.058;2022-09-09T13:44:28;16.10;1.00
12684;DHT22;6406;59.312;18.058;2022-09-09T13:47:01;16.20;1.00
12684;DHT22;6406;59.312;18.058;2022-09-09T13:49:30;16.30;1.00
12684;DHT22;6406;59.312;18.058;2022-09-09T13:52:09;16.30;1.00
12684;DHT22;6406;59.312;18.058;2022-09-09T13:54:37;16.60;1.00
12684;DHT22;6406;59.312;18.058;2022-09-09T13:57:05;16.40;1.00
12684;DHT22;6406;59.312;18.058;2022-09-09T13:59:35;16.30;1.00
12684;DHT22;6406;59.312;18.058;2022-09-09T14:02:15;16.30;1.00
12684;DHT22;6406;59.312;18.058;2022-09-09T14:04:49;16.20;1.00
12684;DHT22;6406;59.312;18.058;2022-09-09T14:07:20;16.10;1.00
12684;DHT22;6406;59.312;18.058;2022-09-09T14:09:48;15.70;1.00
12684;DHT22;6406;59.312;18.058;2022-09-09T14:12:18;15.80;1.00
12684;DHT22;6406;59.312;18.058;2022-09-09T14:14:47;15.90;1.00
12684;DHT22;6406;59.312;18.058;2022-09-09T14:17:14;16.00;1.00
12684;DHT22;6406;59.312;18.058;2022-09-09T14:19:41;16.00;1.00
12684;DHT22;6406;59.312;18.058;2022-09-09T14:22:11;16.00;1.00
12684;DHT22;6406;59.312;18.058;2022-09-09T14:24:39;16.00;1.00
12684;DHT22;6406;59.312;18.058;2022-09-09T14:27:06;15.50;1.00
12684;DHT22;6406;59.312;18.058;2022-09-09T14:29:34;15.20;1.00
12684;DHT22;6406;59.312;18.058;2022-09-09T14:32:03;15.30;1.00
12684;DHT22;6406;59.312;18.058;2022-09-09T14:34:30;15.20;1.00
12684;DHT22;6406;59.312;18.058;2022-09-09T14:37:00;15.30;1.00
12684;DHT22;6406;59.312;18.058;2022-09-09T14:39:28;15.30;1.00
12684;DHT22;6406;59.312;18.058;2022-09-09T14:41:55;15.20;1.00
12684;DHT22;6406;59.312;18.058;2022-09-09T14:44:22;15.30;1.00
12684;DHT22;6406;59.312;18.058;2022-09-09T14:46:49;15.30;1.00
12684;DHT22;6406;59.312;18.058;2022-09-09T14:49:18;15.20;1.00
12684;DHT22;6406;59.312;18.058;2022-09-09T14:51:45;15.00;1.00
12684;DHT22;6406;59.312;18.058;2022-09-09T14:54:13;14.40;1.00
12684;DHT22;6406;59.312;18.058;2022-09-09T14:56:41;15.00;1.00
12684;DHT22;6406;59.312;18.058;2022-09-09T14:59:09;14.90;1.00
12684;DHT22;6406;59.312;18.058;2022-09-09T15:01:36;14.90;1.00
12684;DHT22;6406;59.312;18.058;2022-09-09T15:04:04;15.30;1.00
12684;DHT22;6406;59.312;18.058;2022-09-09T15:06:34;14.90;1.00
12684;DHT22;6406;59.312;18.058;2022-09-09T15:09:04;14.80;1.00
12684;DHT22;6406;59.312;18.058;2022-09-09T15:11:34;14.70;1.00
12684;DHT22;6406;59.312;18.058;2022-09-09T15:14:04;14.70;1.00
12684;DHT22;6406;59.312;18.058;2022-09-09T15:16:32;15.20;1.00
12684;DHT22;6406;59.312;18.058;2022-09-09T15:19:00;14.50;1.00
12684;DHT22;6406;59.312;18.058;2022-09-09T15:21:29;14.60;1.00
12684;DHT22;6406;59.312;18.058;2022-09-09T15:23:58;14.50;1.00
12684;DHT22;6406;59.312;18.058;2022-09-09T15:26:26;14.60;1.00
12684;DHT22;6406;59.312;18.058;2022-09-09T15:28:54;14.60;1.00
12684;DHT22;6406;59.312;18.058;2022-09-09T15:31:24;14.60;1.00
12684;DHT22;6406;59.312;18.058;2022-09-09T15:33:53;14.50;1.00
12684;DHT22;6406;59.312;18.058;2022-09-09T15:36:27;14.60;1.00
12684;DHT22;6406;59.312;18.058;2022-09-09T15:38:56;14.60;1.00
12684;DHT22;6406;59.312;18.058;2022-09-09T15:41:24;14.60;1.00
12684;DHT22;6406;59.312;18.058;2022-09-09T15:43:53;14.40;1.00
12684;DHT22;6406;59.312;18.058;2022-09-09T15:46:25;14.40;1.00
12684;DHT22;6406;59.312;18.058;2022-09-09T15:48:54;14.40;1.00
12684;DHT22;6406;59.312;18.058;2022-09-09T15:51:26;14.40;1.00
12684;DHT22;6406;59.312;18.058;2022-09-09T15:53:57;14.40;1.00
12684;DHT22;6406;59.312;18.058;2022-09-09T15:56:28;14.50;1.00
12684;DHT22;6406;59.312;18.058;2022-09-09T15:58:56;14.30;1.00
12684;DHT22;6406;59.312;18.058;2022-09-09T16:01:24;14.50;1.00
12684;DHT22;6406;59.312;18.058;2022-09-09T16:03:52;14.40;1.00
12684;DHT22;6406;59.312;18.058;2022-09-09T16:06:22;14.40;1.00
12684;DHT22;6406;59.312;18.058;2022-09-09T16:08:51;14.40;1.00
12684;DHT22;6406;59.312;18.058;2022-09-09T16:11:20;14.30;1.00
12684;DHT22;6406;59.312;18.058;2022-09-09T16:13:51;15.50;1.00